sensor_id;sensor_type;location;lat;lon;timestamp;P1;durP1;ratioP1;P2;durP2;ratioP2
40815;SDS011;26535;48.788;9.214;2023-04-06T00:00:53;17.65;;;9.25;;
40815;SDS011;26535;48.788;9.214;2023-04-06T05:02:12;19.20;;;11.57;;
40815;SDS011;26535;48.788;9.214;2023-04-06T05:04:57;17.38;;;10.95;;
40815;SDS011;26535;48.788;9.214;2023-04-06T05:07:28;16.27;;;10.48;;
40815;SDS011;26535;48.788;9.214;2023-04-06T05:09:59;14.30;;;9.63;;
40815;SDS011;26535;48.788;9.214;2023-04-06T05:12:54;18.15;;;10.60;;
40815;SDS011;26535;48.788;9.214;2023-04-06T05:15:32;17.67;;;10.52;;
40815;SDS011;26535;48.788;9.214;2023-04-06T05:18:14;16.17;;;10.48;;
40815;SDS011;26535;48.788;9.214;2023-04-06T05:21:03;19.02;;;10.07;;
40815;SDS011;26535;48.788;9.214;2023-04-06T05:24:02;13.25;;;9.45;;
40815;SDS011;26535;48.788;9.214;2023-04-06T05:26:30;15.77;;;10.77;;
40815;SDS011;26535;48.788;9.214;2023-04-06T05:29:05;17.75;;;10.85;;
40815;SDS011;26535;48.788;9.214;2023-04-06T05:31:37;18.30;;;10.95;;
40815;SDS011;26535;48.788;9.214;2023-04-06T05:34:12;20.08;;;12.18;;
40815;SDS011;26535;48.788;9.214;2023-04-06T05:36:45;20.80;;;11.23;;
40815;SDS011;26535;48.788;9.214;2023-04-06T05:42:06;17.88;;;11.10;;
40815;SDS011;26535;48.788;9.214;2023-04-06T05:44:52;16.35;;;10.13;;
40815;SDS011;26535;48.788;9.214;2023-04-06T05:47:28;18.30;;;10.23;;
40815;SDS011;26535;48.788;9.214;2023-04-06T05:50:27;18.08;;;10.35;;
40815;SDS011;26535;48.788;9.214;2023-04-06T05:52:55;22.02;;;11.63;;
40815;SDS011;26535;48.788;9.214;2023-04-06T05:55:27;20.65;;;11.25;;
40815;SDS011;26535;48.788;9.214;2023-04-06T05:58:22;20.10;;;10.73;;
40815;SDS011;26535;48.788;9.214;2023-04-06T06:01:47;20.27;;;10.90;;
40815;SDS011;26535;48.788;9.214;2023-04-06T06:04:30;19.40;;;10.88;;
40815;SDS011;26535;48.788;9.214;2023-04-06T06:06:56;21.13;;;10.63;;
40815;SDS011;26535;48.788;9.214;2023-04-06T06:09:35;20.05;;;10.90;;
40815;SDS011;26535;48.788;9.214;2023-04-06T06:15:21;15.90;;;9.47;;
40815;SDS011;26535;48.788;9.214;2023-04-06T06:17:51;16.60;;;9.88;;
40815;SDS011;26535;48.788;9.214;2023-04-06T06:24:29;22.55;;;9.82;;
40815;SDS011;26535;48.788;9.214;2023-04-06T06:30:14;18.85;;;10.65;;
40815;SDS011;26535;48.788;9.214;2023-04-06T06:33:15;20.00;;;10.73;;
40815;SDS011;26535;48.788;9.214;2023-04-06T06:35:43;21.02;;;10.82;;
40815;SDS011;26535;48.788;9.214;2023-04-06T06:38:20;20.85;;;11.05;;
40815;SDS011;26535;48.788;9.214;2023-04-06T06:40:49;22.17;;;11.95;;
40815;SDS011;26535;48.788;9.214;2023-04-06T06:43:18;20.17;;;11.90;;
40815;SDS011;26535;48.788;9.214;2023-04-06T06:46:13;17.55;;;9.98;;
40815;SDS011;26535;48.788;9.214;2023-04-06T06:48:45;18.55;;;11.43;;
40815;SDS011;26535;48.788;9.214;2023-04-06T06:51:17;16.15;;;10.63;;
40815;SDS011;26535;48.788;9.214;2023-04-06T06:53:43;18.65;;;10.63;;
40815;SDS011;26535;48.788;9.214;2023-04-06T06:56:35;19.65;;;9.75;;
40815;SDS011;26535;48.788;9.214;2023-04-06T06:59:08;17.08;;;10.57;;
40815;SDS011;26535;48.788;9.214;2023-04-06T07:01:50;20.20;;;10.88;;
40815;SDS011;26535;48.788;9.214;2023-04-06T07:04:18;20.35;;;11.27;;
40815;SDS011;26535;48.788;9.214;2023-04-06T07:06:53;17.27;;;11.20;;
40815;SDS011;26535;48.788;9.214;2023-04-06T07:10:04;22.33;;;11.85;;
40815;SDS011;26535;48.788;9.214;2023-04-06T07:12:40;19.92;;;11.73;;
40815;SDS011;26535;48.788;9.214;2023-04-06T07:15:27;21.67;;;11.27;;
40815;SDS011;26535;48.788;9.214;2023-04-06T07:17:56;23.00;;;12.23;;
40815;SDS011;26535;48.788;9.214;2023-04-06T07:20:55;25.40;;;13.02;;
40815;SDS011;26535;48.788;9.214;2023-04-06T07:23:26;19.30;;;11.77;;
40815;SDS011;26535;48.788;9.214;2023-04-06T07:25:57;23.58;;;11.98;;
40815;SDS011;26535;48.788;9.214;2023-04-06T07:28:32;17.73;;;11.02;;
40815;SDS011;26535;48.788;9.214;2023-04-06T07:31:08;20.38;;;11.02;;
40815;SDS011;26535;48.788;9.214;2023-04-06T07:33:36;19.63;;;10.93;;
40815;SDS011;26535;48.788;9.214;2023-04-06T07:36:02;15.27;;;10.63;;
40815;SDS011;26535;48.788;9.214;2023-04-06T07:38:28;19.20;;;10.60;;
40815;SDS011;26535;48.788;9.214;2023-04-06T07:41:33;20.38;;;11.23;;
40815;SDS011;26535;48.788;9.214;2023-04-06T07:44:25;16.15;;;10.60;;
40815;SDS011;26535;48.788;9.214;2023-04-06T07:47:11;15.75;;;10.02;;
40815;SDS011;26535;48.788;9.214;2023-04-06T07:49:40;15.05;;;9.75;;
40815;SDS011;26535;48.788;9.214;2023-04-06T07:52:15;15.68;;;10.27;;
40815;SDS011;26535;48.788;9.214;2023-04-06T07:55:12;19.63;;;10.95;;
40815;SDS011;26535;48.788;9.214;2023-04-06T07:57:40;16.38;;;10.05;;
40815;SDS011;26535;48.788;9.214;2023-04-06T08:00:19;16.50;;;9.52;;
40815;SDS011;26535;48.788;9.214;2023-04-06T08:02:45;16.17;;;10.88;;
40815;SDS011;26535;48.788;9.214;2023-04-06T08:05:32;16.00;;;10.13;;
40815;SDS011;26535;48.788;9.214;2023-04-06T08:07:58;18.13;;;11.20;;
40815;SDS011;26535;48.788;9.214;2023-04-06T08:10:27;19.73;;;10.25;;
40815;SDS011;26535;48.788;9.214;2023-04-06T08:12:53;17.90;;;10.35;;
40815;SDS011;26535;48.788;9.214;2023-04-06T08:15:22;18.92;;;10.90;;
40815;SDS011;26535;48.788;9.214;2023-04-06T08:17:51;19.42;;;10.82;;
40815;SDS011;26535;48.788;9.214;2023-04-06T08:20:22;17.63;;;10.27;;
40815;SDS011;26535;48.788;9.214;2023-04-06T08:23:20;16.25;;;9.93;;
40815;SDS011;26535;48.788;9.214;2023-04-06T08:25:54;17.38;;;10.80;;
40815;SDS011;26535;48.788;9.214;2023-04-06T08:28:24;17.17;;;10.60;;
40815;SDS011;26535;48.788;9.214;2023-04-06T08:31:08;18.23;;;10.73;;
40815;SDS011;26535;48.788;9.214;2023-04-06T08:33:36;21.00;;;10.00;;
40815;SDS011;26535;48.788;9.214;2023-04-06T08:36:16;17.10;;;9.90;;
40815;SDS011;26535;48.788;9.214;2023-04-06T08:38:55;17.52;;;9.55;;
40815;SDS011;26535;48.788;9.214;2023-04-06T08:41:34;17.15;;;10.27;;
40815;SDS011;26535;48.788;9.214;2023-04-06T08:46:32;17.73;;;9.57;;
40815;SDS011;26535;48.788;9.214;2023-04-06T08:49:11;14.82;;;9.40;;
40815;SDS011;26535;48.788;9.214;2023-04-06T08:51:48;15.93;;;9.45;;
40815;SDS011;26535;48.788;9.214;2023-04-06T08:54:17;16.13;;;9.95;;
40815;SDS011;26535;48.788;9.214;2023-04-06T08:56:47;16.88;;;9.23;;
40815;SDS011;26535;48.788;9.214;2023-04-06T08:59:13;15.40;;;9.70;;
40815;SDS011;26535;48.788;9.214;2023-04-06T09:02:03;14.75;;;8.60;;
40815;SDS011;26535;48.788;9.214;2023-04-06T09:04:52;18.67;;;10.18;;
40815;SDS011;26535;48.788;9.214;2023-04-06T09:07:19;15.68;;;9.20;;
40815;SDS011;26535;48.788;9.214;2023-04-06T09:09:45;12.85;;;8.00;;
40815;SDS011;26535;48.788;9.214;2023-04-06T09:14:48;12.73;;;8.27;;
40815;SDS011;26535;48.788;9.214;2023-04-06T09:17:22;17.00;;;9.13;;
40815;SDS011;26535;48.788;9.214;2023-04-06T09:20:26;14.45;;;8.27;;
40815;SDS011;26535;48.788;9.214;2023-04-06T09:23:22;14.65;;;7.82;;
40815;SDS011;26535;48.788;9.214;2023-04-06T09:25:49;14.55;;;8.77;;
40815;SDS011;26535;48.788;9.214;2023-04-06T09:31:32;11.88;;;8.18;;
40815;SDS011;26535;48.788;9.214;2023-04-06T09:34:00;11.88;;;8.25;;
40815;SDS011;26535;48.788;9.214;2023-04-06T09:36:38;14.10;;;8.55;;
40815;SDS011;26535;48.788;9.214;2023-04-06T09:39:31;12.88;;;8.70;;
40815;SDS011;26535;48.788;9.214;2023-04-06T09:41:57;12.93;;;8.57;;
40815;SDS011;26535;48.788;9.214;2023-04-06T09:44:46;12.98;;;7.85;;
40815;SDS011;26535;48.788;9.214;2023-04-06T09:47:28;17.20;;;9.48;;
40815;SDS011;26535;48.788;9.214;2023-04-06T09:50:20;13.00;;;7.85;;
40815;SDS011;26535;48.788;9.214;2023-04-06T09:52:55;12.20;;;6.82;;
40815;SDS011;26535;48.788;9.214;2023-04-06T09:55:33;9.73;;;6.63;;
40815;SDS011;26535;48.788;9.214;2023-04-06T09:58:32;14.10;;;8.02;;
40815;SDS011;26535;48.788;9.214;2023-04-06T10:01:12;11.65;;;6.90;;
40815;SDS011;26535;48.788;9.214;2023-04-06T10:06:37;9.23;;;5.47;;
40815;SDS011;26535;48.788;9.214;2023-04-06T10:09:13;9.90;;;5.90;;
40815;SDS011;26535;48.788;9.214;2023-04-06T10:11:49;11.27;;;5.35;;
40815;SDS011;26535;48.788;9.214;2023-04-06T10:14:35;8.57;;;5.22;;
40815;SDS011;26535;48.788;9.214;2023-04-06T10:17:12;8.45;;;5.68;;
40815;SDS011;26535;48.788;9.214;2023-04-06T10:19:47;10.70;;;5.90;;
40815;SDS011;26535;48.788;9.214;2023-04-06T10:22:34;10.82;;;6.30;;
40815;SDS011;26535;48.788;9.214;2023-04-06T10:25:01;9.20;;;6.03;;
40815;SDS011;26535;48.788;9.214;2023-04-06T10:27:33;9.75;;;5.68;;
40815;SDS011;26535;48.788;9.214;2023-04-06T10:30:09;10.40;;;6.55;;
40815;SDS011;26535;48.788;9.214;2023-04-06T10:32:42;9.63;;;6.07;;
40815;SDS011;26535;48.788;9.214;2023-04-06T10:35:11;8.32;;;5.55;;
40815;SDS011;26535;48.788;9.214;2023-04-06T10:37:54;8.98;;;5.93;;
40815;SDS011;26535;48.788;9.214;2023-04-06T10:40:27;8.95;;;6.28;;
40815;SDS011;26535;48.788;9.214;2023-04-06T10:46:11;8.75;;;5.88;;
40815;SDS011;26535;48.788;9.214;2023-04-06T10:48:56;11.15;;;5.90;;
40815;SDS011;26535;48.788;9.214;2023-04-06T10:51:37;10.50;;;5.47;;
40815;SDS011;26535;48.788;9.214;2023-04-06T10:54:12;9.05;;;5.85;;
40815;SDS011;26535;48.788;9.214;2023-04-06T10:56:48;9.52;;;5.82;;
40815;SDS011;26535;48.788;9.214;2023-04-06T10:59:20;10.50;;;6.47;;
40815;SDS011;26535;48.788;9.214;2023-04-06T11:02:21;9.70;;;5.50;;
40815;SDS011;26535;48.788;9.214;2023-04-06T11:05:00;8.90;;;5.78;;
40815;SDS011;26535;48.788;9.214;2023-04-06T11:07:26;8.98;;;5.57;;
40815;SDS011;26535;48.788;9.214;2023-04-06T11:09:58;8.45;;;5.65;;
40815;SDS011;26535;48.788;9.214;2023-04-06T11:12:58;8.43;;;5.68;;
40815;SDS011;26535;48.788;9.214;2023-04-06T11:15:34;7.55;;;5.05;;
40815;SDS011;26535;48.788;9.214;2023-04-06T11:18:03;8.90;;;5.38;;
40815;SDS011;26535;48.788;9.214;2023-04-06T11:20:53;8.70;;;5.60;;
40815;SDS011;26535;48.788;9.214;2023-04-06T11:23:28;8.77;;;5.18;;
40815;SDS011;26535;48.788;9.214;2023-04-06T11:25:59;6.15;;;4.53;;
40815;SDS011;26535;48.788;9.214;2023-04-06T11:28:25;6.88;;;5.30;;
40815;SDS011;26535;48.788;9.214;2023-04-06T11:30:59;7.90;;;5.38;;
40815;SDS011;26535;48.788;9.214;2023-04-06T11:33:34;7.68;;;5.07;;
40815;SDS011;26535;48.788;9.214;2023-04-06T11:36:08;8.65;;;5.38;;
40815;SDS011;26535;48.788;9.214;2023-04-06T11:38:45;8.30;;;5.00;;
40815;SDS011;26535;48.788;9.214;2023-04-06T11:41:11;7.63;;;4.72;;
40815;SDS011;26535;48.788;9.214;2023-04-06T11:43:45;6.97;;;5.05;;
40815;SDS011;26535;48.788;9.214;2023-04-06T11:46:16;6.60;;;4.75;;
40815;SDS011;26535;48.788;9.214;2023-04-06T11:48:57;5.55;;;4.60;;
40815;SDS011;26535;48.788;9.214;2023-04-06T11:51:37;6.60;;;4.93;;
40815;SDS011;26535;48.788;9.214;2023-04-06T11:57:17;7.50;;;4.65;;
40815;SDS011;26535;48.788;9.214;2023-04-06T11:59:55;8.27;;;4.93;;
40815;SDS011;26535;48.788;9.214;2023-04-06T12:02:33;6.30;;;4.35;;
40815;SDS011;26535;48.788;9.214;2023-04-06T12:05:01;5.78;;;4.88;;
40815;SDS011;26535;48.788;9.214;2023-04-06T12:07:33;6.57;;;4.80;;
40815;SDS011;26535;48.788;9.214;2023-04-06T12:10:11;8.48;;;4.82;;
40815;SDS011;26535;48.788;9.214;2023-04-06T12:12:43;6.10;;;4.97;;
40815;SDS011;26535;48.788;9.214;2023-04-06T12:15:09;6.53;;;4.80;;
40815;SDS011;26535;48.788;9.214;2023-04-06T12:17:35;5.63;;;4.45;;
40815;SDS011;26535;48.788;9.214;2023-04-06T12:20:02;6.68;;;4.60;;
40815;SDS011;26535;48.788;9.214;2023-04-06T12:22:31;6.05;;;4.22;;
40815;SDS011;26535;48.788;9.214;2023-04-06T12:25:09;5.50;;;3.95;;
40815;SDS011;26535;48.788;9.214;2023-04-06T12:27:42;4.95;;;3.97;;
40815;SDS011;26535;48.788;9.214;2023-04-06T12:30:29;4.72;;;3.80;;
40815;SDS011;26535;48.788;9.214;2023-04-06T12:32:55;5.80;;;4.10;;
40815;SDS011;26535;48.788;9.214;2023-04-06T12:35:21;6.40;;;3.85;;
40815;SDS011;26535;48.788;9.214;2023-04-06T12:37:50;6.47;;;3.92;;
40815;SDS011;26535;48.788;9.214;2023-04-06T12:40:16;6.68;;;4.20;;
40815;SDS011;26535;48.788;9.214;2023-04-06T12:43:04;5.32;;;3.63;;
40815;SDS011;26535;48.788;9.214;2023-04-06T12:45:56;5.55;;;4.00;;
40815;SDS011;26535;48.788;9.214;2023-04-06T12:48:21;4.93;;;3.20;;
40815;SDS011;26535;48.788;9.214;2023-04-06T12:54:04;6.00;;;4.15;;
40815;SDS011;26535;48.788;9.214;2023-04-06T13:00:52;6.43;;;3.78;;
40815;SDS011;26535;48.788;9.214;2023-04-06T13:03:18;5.80;;;4.53;;
40815;SDS011;26535;48.788;9.214;2023-04-06T13:05:48;5.55;;;4.18;;
40815;SDS011;26535;48.788;9.214;2023-04-06T13:08:18;6.10;;;3.63;;
40815;SDS011;26535;48.788;9.214;2023-04-06T13:10:53;4.50;;;3.60;;
40815;SDS011;26535;48.788;9.214;2023-04-06T13:13:26;5.38;;;4.20;;
40815;SDS011;26535;48.788;9.214;2023-04-06T13:15:54;5.43;;;3.85;;
40815;SDS011;26535;48.788;9.214;2023-04-06T13:18:32;5.43;;;3.30;;
40815;SDS011;26535;48.788;9.214;2023-04-06T13:21:03;5.57;;;3.78;;
40815;SDS011;26535;48.788;9.214;2023-04-06T13:23:35;5.30;;;3.95;;
40815;SDS011;26535;48.788;9.214;2023-04-06T13:26:02;5.93;;;4.28;;
40815;SDS011;26535;48.788;9.214;2023-04-06T13:28:41;6.43;;;4.13;;
40815;SDS011;26535;48.788;9.214;2023-04-06T13:31:16;6.13;;;4.78;;
40815;SDS011;26535;48.788;9.214;2023-04-06T13:33:47;6.60;;;4.40;;
40815;SDS011;26535;48.788;9.214;2023-04-06T13:36:13;5.60;;;4.20;;
40815;SDS011;26535;48.788;9.214;2023-04-06T13:41:07;5.80;;;4.22;;
40815;SDS011;26535;48.788;9.214;2023-04-06T13:43:32;5.75;;;4.22;;
40815;SDS011;26535;48.788;9.214;2023-04-06T13:46:10;5.45;;;3.58;;
40815;SDS011;26535;48.788;9.214;2023-04-06T13:48:37;5.88;;;4.65;;
40815;SDS011;26535;48.788;9.214;2023-04-06T13:51:12;6.32;;;4.57;;
40815;SDS011;26535;48.788;9.214;2023-04-06T13:53:41;5.95;;;4.18;;
40815;SDS011;26535;48.788;9.214;2023-04-06T13:56:07;6.43;;;4.53;;
40815;SDS011;26535;48.788;9.214;2023-04-06T13:58:35;7.43;;;4.20;;
40815;SDS011;26535;48.788;9.214;2023-04-06T14:01:02;6.80;;;4.80;;
40815;SDS011;26535;48.788;9.214;2023-04-06T14:03:32;6.07;;;4.38;;
40815;SDS011;26535;48.788;9.214;2023-04-06T14:05:59;5.95;;;4.40;;
40815;SDS011;26535;48.788;9.214;2023-04-06T14:08:25;5.22;;;3.90;;
40815;SDS011;26535;48.788;9.214;2023-04-06T14:10:50;6.25;;;4.60;;
40815;SDS011;26535;48.788;9.214;2023-04-06T14:13:31;8.35;;;5.28;;
40815;SDS011;26535;48.788;9.214;2023-04-06T14:16:04;7.03;;;4.93;;
40815;SDS011;26535;48.788;9.214;2023-04-06T14:18:39;7.10;;;4.35;;
40815;SDS011;26535;48.788;9.214;2023-04-06T14:21:25;7.20;;;4.43;;
40815;SDS011;26535;48.788;9.214;2023-04-06T14:23:55;5.97;;;4.65;;
40815;SDS011;26535;48.788;9.214;2023-04-06T14:26:28;6.95;;;4.25;;
40815;SDS011;26535;48.788;9.214;2023-04-06T14:29:03;6.85;;;4.55;;
40815;SDS011;26535;48.788;9.214;2023-04-06T14:34:33;8.63;;;4.75;;
40815;SDS011;26535;48.788;9.214;2023-04-06T14:37:05;6.72;;;4.18;;
40815;SDS011;26535;48.788;9.214;2023-04-06T14:39:32;6.55;;;4.15;;
40815;SDS011;26535;48.788;9.214;2023-04-06T14:41:58;5.78;;;3.90;;
40815;SDS011;26535;48.788;9.214;2023-04-06T14:44:26;7.07;;;4.38;;
40815;SDS011;26535;48.788;9.214;2023-04-06T14:47:12;6.57;;;4.50;;
40815;SDS011;26535;48.788;9.214;2023-04-06T14:49:43;5.90;;;4.45;;
40815;SDS011;26535;48.788;9.214;2023-04-06T14:52:15;6.72;;;4.20;;
40815;SDS011;26535;48.788;9.214;2023-04-06T14:54:43;6.13;;;4.30;;
40815;SDS011;26535;48.788;9.214;2023-04-06T14:57:09;6.95;;;4.22;;
40815;SDS011;26535;48.788;9.214;2023-04-06T14:59:35;6.00;;;4.20;;
40815;SDS011;26535;48.788;9.214;2023-04-06T15:02:03;6.97;;;4.32;;
40815;SDS011;26535;48.788;9.214;2023-04-06T15:04:29;6.13;;;4.35;;
40815;SDS011;26535;48.788;9.214;2023-04-06T15:06:55;7.90;;;4.68;;
40815;SDS011;26535;48.788;9.214;2023-04-06T15:09:21;6.43;;;4.47;;
40815;SDS011;26535;48.788;9.214;2023-04-06T15:11:47;7.10;;;4.80;;
40815;SDS011;26535;48.788;9.214;2023-04-06T15:14:13;5.78;;;4.25;;
40815;SDS011;26535;48.788;9.214;2023-04-06T15:16:38;6.18;;;4.43;;
40815;SDS011;26535;48.788;9.214;2023-04-06T15:19:04;6.10;;;4.55;;
40815;SDS011;26535;48.788;9.214;2023-04-06T15:21:30;7.53;;;4.50;;
40815;SDS011;26535;48.788;9.214;2023-04-06T15:23:57;6.30;;;4.68;;
40815;SDS011;26535;48.788;9.214;2023-04-06T15:26:23;7.68;;;4.60;;
40815;SDS011;26535;48.788;9.214;2023-04-06T15:28:48;8.23;;;4.18;;
40815;SDS011;26535;48.788;9.214;2023-04-06T15:31:15;6.32;;;4.25;;
40815;SDS011;26535;48.788;9.214;2023-04-06T15:33:41;7.88;;;4.57;;
40815;SDS011;26535;48.788;9.214;2023-04-06T15:36:08;6.60;;;4.07;;
40815;SDS011;26535;48.788;9.214;2023-04-06T15:38:55;6.63;;;4.18;;
40815;SDS011;26535;48.788;9.214;2023-04-06T15:41:22;7.00;;;4.63;;
40815;SDS011;26535;48.788;9.214;2023-04-06T15:43:54;7.28;;;4.20;;
40815;SDS011;26535;48.788;9.214;2023-04-06T15:46:26;6.22;;;4.57;;
40815;SDS011;26535;48.788;9.214;2023-04-06T15:48:51;8.20;;;4.70;;
40815;SDS011;26535;48.788;9.214;2023-04-06T15:51:17;6.35;;;4.57;;
40815;SDS011;26535;48.788;9.214;2023-04-06T15:53:43;6.63;;;4.40;;
40815;SDS011;26535;48.788;9.214;2023-04-06T15:56:12;7.78;;;4.32;;
40815;SDS011;26535;48.788;9.214;2023-04-06T15:58:38;6.97;;;4.35;;
40815;SDS011;26535;48.788;9.214;2023-04-06T16:01:11;7.28;;;5.00;;
40815;SDS011;26535;48.788;9.214;2023-04-06T16:03:37;7.45;;;4.72;;
40815;SDS011;26535;48.788;9.214;2023-04-06T16:06:03;7.18;;;4.80;;
40815;SDS011;26535;48.788;9.214;2023-04-06T16:08:29;7.35;;;4.35;;
40815;SDS011;26535;48.788;9.214;2023-04-06T16:10:55;7.90;;;4.63;;
40815;SDS011;26535;48.788;9.214;2023-04-06T16:13:20;8.35;;;5.20;;
40815;SDS011;26535;48.788;9.214;2023-04-06T16:15:49;7.85;;;4.80;;
40815;SDS011;26535;48.788;9.214;2023-04-06T16:18:16;7.50;;;4.97;;
40815;SDS011;26535;48.788;9.214;2023-04-06T16:20:42;9.43;;;4.90;;
40815;SDS011;26535;48.788;9.214;2023-04-06T16:23:08;7.75;;;4.93;;
40815;SDS011;26535;48.788;9.214;2023-04-06T16:25:34;7.85;;;4.93;;
40815;SDS011;26535;48.788;9.214;2023-04-06T16:28:00;8.90;;;4.78;;
40815;SDS011;26535;48.788;9.214;2023-04-06T16:30:31;8.35;;;5.10;;
40815;SDS011;26535;48.788;9.214;2023-04-06T16:33:04;7.82;;;4.72;;
40815;SDS011;26535;48.788;9.214;2023-04-06T16:35:30;7.25;;;4.88;;
40815;SDS011;26535;48.788;9.214;2023-04-06T16:37:55;8.23;;;5.07;;
40815;SDS011;26535;48.788;9.214;2023-04-06T16:40:21;8.35;;;5.13;;
40815;SDS011;26535;48.788;9.214;2023-04-06T16:42:47;8.75;;;5.25;;
40815;SDS011;26535;48.788;9.214;2023-04-06T16:45:13;6.90;;;4.60;;
40815;SDS011;26535;48.788;9.214;2023-04-06T16:47:39;7.70;;;4.82;;
40815;SDS011;26535;48.788;9.214;2023-04-06T16:50:05;8.13;;;5.80;;
40815;SDS011;26535;48.788;9.214;2023-04-06T16:52:32;11.18;;;5.82;;
40815;SDS011;26535;48.788;9.214;2023-04-06T16:54:58;10.32;;;6.00;;
40815;SDS011;26535;48.788;9.214;2023-04-06T16:57:23;11.82;;;6.47;;
40815;SDS011;26535;48.788;9.214;2023-04-06T16:59:56;9.30;;;6.18;;
40815;SDS011;26535;48.788;9.214;2023-04-06T17:02:22;10.27;;;6.47;;
40815;SDS011;26535;48.788;9.214;2023-04-06T17:04:49;9.50;;;6.50;;
40815;SDS011;26535;48.788;9.214;2023-04-06T17:07:15;12.27;;;7.18;;
40815;SDS011;26535;48.788;9.214;2023-04-06T17:09:41;13.25;;;7.13;;
40815;SDS011;26535;48.788;9.214;2023-04-06T17:12:07;11.13;;;6.97;;
40815;SDS011;26535;48.788;9.214;2023-04-06T17:17:49;8.75;;;5.88;;
40815;SDS011;26535;48.788;9.214;2023-04-06T17:20:15;10.48;;;6.13;;
40815;SDS011;26535;48.788;9.214;2023-04-06T17:22:50;9.70;;;5.57;;
40815;SDS011;26535;48.788;9.214;2023-04-06T17:25:15;8.45;;;5.32;;
40815;SDS011;26535;48.788;9.214;2023-04-06T17:28:02;8.20;;;5.00;;
40815;SDS011;26535;48.788;9.214;2023-04-06T17:30:36;8.63;;;5.27;;
40815;SDS011;26535;48.788;9.214;2023-04-06T17:33:29;8.82;;;5.10;;
40815;SDS011;26535;48.788;9.214;2023-04-06T17:36:08;8.73;;;4.55;;
40815;SDS011;26535;48.788;9.214;2023-04-06T17:38:37;8.88;;;4.45;;
40815;SDS011;26535;48.788;9.214;2023-04-06T17:41:10;9.57;;;4.25;;
40815;SDS011;26535;48.788;9.214;2023-04-06T17:46:19;8.50;;;4.50;;
40815;SDS011;26535;48.788;9.214;2023-04-06T17:48:58;7.45;;;4.07;;
40815;SDS011;26535;48.788;9.214;2023-04-06T17:51:28;8.55;;;4.22;;
40815;SDS011;26535;48.788;9.214;2023-04-06T17:54:16;7.45;;;4.20;;
40815;SDS011;26535;48.788;9.214;2023-04-06T17:56:55;8.63;;;4.20;;
40815;SDS011;26535;48.788;9.214;2023-04-06T17:59:46;9.98;;;4.10;;
40815;SDS011;26535;48.788;9.214;2023-04-06T18:02:17;9.52;;;3.97;;
40815;SDS011;26535;48.788;9.214;2023-04-06T18:04:52;7.85;;;4.65;;
40815;SDS011;26535;48.788;9.214;2023-04-06T18:07:43;9.07;;;4.50;;
40815;SDS011;26535;48.788;9.214;2023-04-06T18:10:09;8.90;;;4.85;;
40815;SDS011;26535;48.788;9.214;2023-04-06T18:12:38;8.45;;;4.60;;
40815;SDS011;26535;48.788;9.214;2023-04-06T18:15:09;8.82;;;4.38;;
40815;SDS011;26535;48.788;9.214;2023-04-06T18:17:59;9.57;;;4.43;;
40815;SDS011;26535;48.788;9.214;2023-04-06T18:20:41;6.93;;;3.97;;
40815;SDS011;26535;48.788;9.214;2023-04-06T18:23:13;10.23;;;5.35;;
40815;SDS011;26535;48.788;9.214;2023-04-06T18:25:39;9.88;;;4.70;;
40815;SDS011;26535;48.788;9.214;2023-04-06T18:28:05;8.82;;;4.97;;
40815;SDS011;26535;48.788;9.214;2023-04-06T18:30:33;8.23;;;4.90;;
40815;SDS011;26535;48.788;9.214;2023-04-06T18:33:02;7.97;;;4.45;;
40815;SDS011;26535;48.788;9.214;2023-04-06T18:35:53;10.02;;;4.43;;
40815;SDS011;26535;48.788;9.214;2023-04-06T18:38:31;9.15;;;4.85;;
40815;SDS011;26535;48.788;9.214;2023-04-06T18:40:56;9.18;;;4.57;;
40815;SDS011;26535;48.788;9.214;2023-04-06T18:43:26;7.97;;;4.60;;
40815;SDS011;26535;48.788;9.214;2023-04-06T18:45:57;9.02;;;4.80;;
40815;SDS011;26535;48.788;9.214;2023-04-06T18:48:26;8.75;;;4.43;;
40815;SDS011;26535;48.788;9.214;2023-04-06T18:50:56;8.15;;;4.40;;
40815;SDS011;26535;48.788;9.214;2023-04-06T18:53:49;7.20;;;4.00;;
40815;SDS011;26535;48.788;9.214;2023-04-06T18:56:18;8.13;;;4.25;;
40815;SDS011;26535;48.788;9.214;2023-04-06T18:58:50;9.70;;;4.38;;
40815;SDS011;26535;48.788;9.214;2023-04-06T19:01:29;6.88;;;3.95;;
40815;SDS011;26535;48.788;9.214;2023-04-06T19:04:03;8.80;;;4.45;;
40815;SDS011;26535;48.788;9.214;2023-04-06T19:06:57;8.88;;;4.22;;
40815;SDS011;26535;48.788;9.214;2023-04-06T19:09:52;6.38;;;3.40;;
40815;SDS011;26535;48.788;9.214;2023-04-06T19:12:19;7.93;;;3.88;;
40815;SDS011;26535;48.788;9.214;2023-04-06T19:14:56;6.07;;;3.67;;
40815;SDS011;26535;48.788;9.214;2023-04-06T19:17:25;7.50;;;3.83;;
40815;SDS011;26535;48.788;9.214;2023-04-06T19:19:51;6.05;;;3.30;;
40815;SDS011;26535;48.788;9.214;2023-04-06T19:22:20;8.45;;;4.68;;
40815;SDS011;26535;48.788;9.214;2023-04-06T19:24:47;8.73;;;4.45;;
40815;SDS011;26535;48.788;9.214;2023-04-06T19:29:44;7.53;;;3.88;;
40815;SDS011;26535;48.788;9.214;2023-04-06T19:32:13;5.82;;;3.35;;
40815;SDS011;26535;48.788;9.214;2023-04-06T19:34:39;7.28;;;3.47;;
40815;SDS011;26535;48.788;9.214;2023-04-06T19:37:07;6.60;;;3.58;;
40815;SDS011;26535;48.788;9.214;2023-04-06T19:39:33;6.47;;;3.42;;
40815;SDS011;26535;48.788;9.214;2023-04-06T19:42:03;6.90;;;2.80;;
40815;SDS011;26535;48.788;9.214;2023-04-06T19:44:29;6.13;;;2.58;;
40815;SDS011;26535;48.788;9.214;2023-04-06T19:47:07;6.07;;;2.78;;
40815;SDS011;26535;48.788;9.214;2023-04-06T19:49:48;5.68;;;2.53;;
40815;SDS011;26535;48.788;9.214;2023-04-06T19:52:17;5.38;;;2.53;;
40815;SDS011;26535;48.788;9.214;2023-04-06T19:54:46;5.45;;;2.65;;
40815;SDS011;26535;48.788;9.214;2023-04-06T19:57:20;6.25;;;2.67;;
40815;SDS011;26535;48.788;9.214;2023-04-06T19:59:52;4.25;;;2.42;;
40815;SDS011;26535;48.788;9.214;2023-04-06T20:02:35;4.40;;;2.05;;
40815;SDS011;26535;48.788;9.214;2023-04-06T20:05:10;6.30;;;2.50;;
40815;SDS011;26535;48.788;9.214;2023-04-06T20:07:37;4.15;;;1.60;;
40815;SDS011;26535;48.788;9.214;2023-04-06T20:10:27;3.45;;;1.42;;
40815;SDS011;26535;48.788;9.214;2023-04-06T20:13:04;3.00;;;1.33;;
40815;SDS011;26535;48.788;9.214;2023-04-06T20:15:33;4.25;;;1.75;;
40815;SDS011;26535;48.788;9.214;2023-04-06T20:18:00;3.92;;;1.80;;
40815;SDS011;26535;48.788;9.214;2023-04-06T20:20:26;3.58;;;1.73;;
40815;SDS011;26535;48.788;9.214;2023-04-06T20:22:54;5.63;;;1.90;;
40815;SDS011;26535;48.788;9.214;2023-04-06T20:25:32;6.63;;;2.17;;
40815;SDS011;26535;48.788;9.214;2023-04-06T20:28:07;5.65;;;2.60;;
40815;SDS011;26535;48.788;9.214;2023-04-06T20:30:51;5.03;;;2.25;;
40815;SDS011;26535;48.788;9.214;2023-04-06T20:33:23;4.55;;;2.22;;
40815;SDS011;26535;48.788;9.214;2023-04-06T20:35:57;3.60;;;2.10;;
40815;SDS011;26535;48.788;9.214;2023-04-06T20:38:24;5.13;;;2.58;;
40815;SDS011;26535;48.788;9.214;2023-04-06T20:40:54;4.85;;;2.60;;
40815;SDS011;26535;48.788;9.214;2023-04-06T20:43:48;4.03;;;2.50;;
40815;SDS011;26535;48.788;9.214;2023-04-06T20:46:14;5.72;;;3.00;;
40815;SDS011;26535;48.788;9.214;2023-04-06T20:48:43;6.10;;;3.30;;
40815;SDS011;26535;48.788;9.214;2023-04-06T20:51:16;6.68;;;3.55;;
40815;SDS011;26535;48.788;9.214;2023-04-06T20:53:50;5.93;;;3.40;;
40815;SDS011;26535;48.788;9.214;2023-04-06T20:56:20;6.50;;;3.70;;
40815;SDS011;26535;48.788;9.214;2023-04-06T20:58:47;5.20;;;3.17;;
40815;SDS011;26535;48.788;9.214;2023-04-06T21:01:16;6.30;;;3.30;;
40815;SDS011;26535;48.788;9.214;2023-04-06T21:03:50;6.57;;;3.47;;
40815;SDS011;26535;48.788;9.214;2023-04-06T21:06:18;6.00;;;3.53;;
40815;SDS011;26535;48.788;9.214;2023-04-06T21:08:50;5.35;;;3.50;;
40815;SDS011;26535;48.788;9.214;2023-04-06T21:11:22;4.93;;;3.33;;